sensor_id;sensor_type;location;lat;lon;timestamp;pressure;altitude;pressure_sealevel;temperature;humidity
77939;BME280;67136;47.546;21.630;2023-04-23T00:01:39;100022.47;;;7.28;67.33
77939;BME280;67136;47.546;21.630;2023-04-23T00:04:49;100026.81;;;7.27;67.72
77939;BME280;67136;47.546;21.630;2023-04-23T00:08:31;100022.09;;;7.21;66.88
77939;BME280;67136;47.546;21.630;2023-04-23T00:11:41;100020.63;;;7.17;68.47
77939;BME280;67136;47.546;21.630;2023-04-23T00:14:50;100017.03;;;7.07;68.07
77939;BME280;67136;47.546;21.630;2023-04-23T00:18:09;100016.13;;;7.08;68.80
77939;BME280;67136;47.546;21.630;2023-04-23T00:21:16;100015.41;;;7.06;68.33
77939;BME280;67136;47.546;21.630;2023-04-23T00:24:30;100010.66;;;7.00;69.09
77939;BME280;67136;47.546;21.630;2023-04-23T00:31:40;100014.91;;;7.01;68.63
77939;BME280;67136;47.546;21.630;2023-04-23T00:35:03;100013.44;;;6.97;68.55
77939;BME280;67136;47.546;21.630;2023-04-23T00:38:30;100011.19;;;6.93;69.10
77939;BME280;67136;47.546;21.630;2023-04-23T00:41:41;100012.53;;;6.98;69.89
77939;BME280;67136;47.546;21.630;2023-04-23T00:44:52;100011.75;;;6.85;69.56
77939;BME280;67136;47.546;21.630;2023-04-23T00:48:18;100013.03;;;6.80;69.77
77939;BME280;67136;47.546;21.630;2023-04-23T00:52:01;100016.66;;;6.77;69.45
77939;BME280;67136;47.546;21.630;2023-04-23T00:55:29;100018.34;;;6.78;69.52
77939;BME280;67136;47.546;21.630;2023-04-23T00:58:59;100011.03;;;6.83;69.88
77939;BME280;67136;47.546;21.630;2023-04-23T01:02:13;100002.97;;;6.75;69.38
77939;BME280;67136;47.546;21.630;2023-04-23T01:05:41;99995.81;;;6.66;69.51
77939;BME280;67136;47.546;21.630;2023-04-23T01:12:27;100003.94;;;6.62;70.53
77939;BME280;67136;47.546;21.630;2023-04-23T01:15:45;100004.25;;;6.57;69.77
77939;BME280;67136;47.546;21.630;2023-04-23T01:19:01;100005.41;;;6.53;69.73
77939;BME280;67136;47.546;21.630;2023-04-23T01:22:16;100000.63;;;6.47;69.23
77939;BME280;67136;47.546;21.630;2023-04-23T01:25:36;100000.34;;;6.52;68.55
77939;BME280;67136;47.546;21.630;2023-04-23T01:28:46;100005.72;;;6.49;68.63
77939;BME280;67136;47.546;21.630;2023-04-23T01:32:30;99999.00;;;6.46;68.58
77939;BME280;67136;47.546;21.630;2023-04-23T01:35:48;100004.91;;;6.48;68.11
77939;BME280;67136;47.546;21.630;2023-04-23T01:38:55;100001.88;;;6.54;68.44
77939;BME280;67136;47.546;21.630;2023-04-23T01:42:19;99996.16;;;6.49;68.50
77939;BME280;67136;47.546;21.630;2023-04-23T01:45:41;99997.22;;;6.47;68.81
77939;BME280;67136;47.546;21.630;2023-04-23T01:48:52;99991.19;;;6.46;69.26
77939;BME280;67136;47.546;21.630;2023-04-23T01:52:07;99992.84;;;6.47;70.08
77939;BME280;67136;47.546;21.630;2023-04-23T01:55:24;99996.91;;;6.51;70.45
77939;BME280;67136;47.546;21.630;2023-04-23T01:58:39;99998.34;;;6.55;70.70
77939;BME280;67136;47.546;21.630;2023-04-23T02:01:54;99997.84;;;6.50;69.92
77939;BME280;67136;47.546;21.630;2023-04-23T02:05:19;99997.22;;;6.47;69.93
77939;BME280;67136;47.546;21.630;2023-04-23T02:12:03;99995.16;;;6.39;70.35
77939;BME280;67136;47.546;21.630;2023-04-23T02:15:38;100002.22;;;6.37;68.31
77939;BME280;67136;47.546;21.630;2023-04-23T02:18:54;100001.81;;;6.30;68.99
77939;BME280;67136;47.546;21.630;2023-04-23T02:22:20;100002.16;;;6.26;69.39
77939;BME280;67136;47.546;21.630;2023-04-23T02:26:01;99999.34;;;6.29;69.32
77939;BME280;67136;47.546;21.630;2023-04-23T02:29:28;99996.28;;;6.35;69.29
77939;BME280;67136;47.546;21.630;2023-04-23T02:32:51;100002.63;;;6.44;69.14
77939;BME280;67136;47.546;21.630;2023-04-23T02:36:06;99995.13;;;6.52;68.98
77939;BME280;67136;47.546;21.630;2023-04-23T02:39:32;100003.09;;;6.61;68.84
77939;BME280;67136;47.546;21.630;2023-04-23T02:43:11;99999.63;;;6.73;68.57
77939;BME280;67136;47.546;21.630;2023-04-23T02:46:32;99997.81;;;6.86;68.24
77939;BME280;67136;47.546;21.630;2023-04-23T02:49:53;100009.94;;;6.98;69.01
77939;BME280;67136;47.546;21.630;2023-04-23T02:53:41;100006.16;;;7.02;68.05
77939;BME280;67136;47.546;21.630;2023-04-23T02:56:58;100007.59;;;7.06;66.67
77939;BME280;67136;47.546;21.630;2023-04-23T03:00:16;100003.63;;;7.13;66.24
77939;BME280;67136;47.546;21.630;2023-04-23T03:03:36;100003.63;;;7.13;66.39
77939;BME280;67136;47.546;21.630;2023-04-23T03:06:52;100008.12;;;7.22;65.95
77939;BME280;67136;47.546;21.630;2023-04-23T03:10:31;100014.34;;;7.32;66.06
77939;BME280;67136;47.546;21.630;2023-04-23T03:14:05;100013.87;;;7.38;65.90
77939;BME280;67136;47.546;21.630;2023-04-23T03:17:30;100011.78;;;7.43;66.11
77939;BME280;67136;47.546;21.630;2023-04-23T03:21:08;100015.47;;;7.52;66.17
77939;BME280;67136;47.546;21.630;2023-04-23T03:24:19;100003.88;;;7.56;65.90
77939;BME280;67136;47.546;21.630;2023-04-23T03:27:29;100012.06;;;7.63;65.74
77939;BME280;67136;47.546;21.630;2023-04-23T03:30:39;100014.22;;;7.80;65.87
77939;BME280;67136;47.546;21.630;2023-04-23T03:34:20;100016.50;;;7.84;65.75
77939;BME280;67136;47.546;21.630;2023-04-23T03:37:53;100024.22;;;8.08;65.12
77939;BME280;67136;47.546;21.630;2023-04-23T03:41:32;100028.94;;;8.14;65.08
77939;BME280;67136;47.546;21.630;2023-04-23T03:45:13;100032.25;;;8.16;64.65
77939;BME280;67136;47.546;21.630;2023-04-23T03:48:56;100038.66;;;8.23;63.45
77939;BME280;67136;47.546;21.630;2023-04-23T03:52:14;100037.25;;;8.63;59.45
77939;BME280;67136;47.546;21.630;2023-04-23T03:55:37;100035.28;;;8.87;57.36
77939;BME280;67136;47.546;21.630;2023-04-23T03:58:59;100034.81;;;8.93;57.23
77939;BME280;67136;47.546;21.630;2023-04-23T04:02:11;100043.47;;;8.94;57.75
77939;BME280;67136;47.546;21.630;2023-04-23T04:05:35;100045.72;;;8.98;58.14
77939;BME280;67136;47.546;21.630;2023-04-23T04:08:43;100055.66;;;9.04;58.25
77939;BME280;67136;47.546;21.630;2023-04-23T04:11:55;100056.34;;;9.06;58.53
77939;BME280;67136;47.546;21.630;2023-04-23T04:15:39;100061.31;;;9.09;58.96
77939;BME280;67136;47.546;21.630;2023-04-23T04:19:03;100060.50;;;9.09;59.53
77939;BME280;67136;47.546;21.630;2023-04-23T04:22:21;100065.59;;;9.10;59.89
77939;BME280;67136;47.546;21.630;2023-04-23T04:25:48;100056.69;;;9.13;60.22
77939;BME280;67136;47.546;21.630;2023-04-23T04:29:11;100059.62;;;9.19;60.41
77939;BME280;67136;47.546;21.630;2023-04-23T04:32:31;100064.25;;;9.27;60.39
77939;BME280;67136;47.546;21.630;2023-04-23T04:35:59;100066.34;;;9.33;60.74
77939;BME280;67136;47.546;21.630;2023-04-23T04:39:17;100064.91;;;9.40;60.56
77939;BME280;67136;47.546;21.630;2023-04-23T04:42:59;100055.19;;;9.42;60.94
77939;BME280;67136;47.546;21.630;2023-04-23T04:46:33;100061.19;;;9.53;60.59
77939;BME280;67136;47.546;21.630;2023-04-23T04:49:56;100060.66;;;9.59;60.45
77939;BME280;67136;47.546;21.630;2023-04-23T04:53:17;100056.34;;;9.69;60.35
77939;BME280;67136;47.546;21.630;2023-04-23T04:56:59;100063.22;;;9.70;60.44
77939;BME280;67136;47.546;21.630;2023-04-23T05:00:43;100064.97;;;9.81;60.61
77939;BME280;67136;47.546;21.630;2023-04-23T05:04:06;100061.44;;;9.91;60.30
77939;BME280;67136;47.546;21.630;2023-04-23T05:07:39;100071.66;;;9.94;60.26
77939;BME280;67136;47.546;21.630;2023-04-23T05:11:00;100072.34;;;10.17;59.71
77939;BME280;67136;47.546;21.630;2023-04-23T05:14:11;100075.09;;;10.16;60.03
77939;BME280;67136;47.546;21.630;2023-04-23T05:17:30;100082.22;;;10.14;59.84
77939;BME280;67136;47.546;21.630;2023-04-23T05:20:57;100083.34;;;10.11;60.03
77939;BME280;67136;47.546;21.630;2023-04-23T05:24:40;100086.69;;;10.23;59.90
77939;BME280;67136;47.546;21.630;2023-04-23T05:28:02;100081.03;;;10.48;59.21
77939;BME280;67136;47.546;21.630;2023-04-23T05:31:16;100087.66;;;10.52;59.18
77939;BME280;67136;47.546;21.630;2023-04-23T05:34:35;100084.97;;;10.63;58.73
77939;BME280;67136;47.546;21.630;2023-04-23T05:38:15;100089.66;;;10.69;58.70
77939;BME280;67136;47.546;21.630;2023-04-23T05:41:28;100084.97;;;10.63;58.70
77939;BME280;67136;47.546;21.630;2023-04-23T05:44:53;100078.06;;;10.62;58.93
77939;BME280;67136;47.546;21.630;2023-04-23T05:48:25;100083.72;;;10.97;58.01
77939;BME280;67136;47.546;21.630;2023-04-23T05:51:41;100079.56;;;11.04;58.01
77939;BME280;67136;47.546;21.630;2023-04-23T05:55:03;100080.31;;;11.44;56.87
77939;BME280;67136;47.546;21.630;2023-04-23T05:58:27;100088.03;;;11.36;56.90
77939;BME280;67136;47.546;21.630;2023-04-23T06:01:43;100080.47;;;11.52;56.64
77939;BME280;67136;47.546;21.630;2023-04-23T06:08:48;100085.03;;;11.79;55.82
77939;BME280;67136;47.546;21.630;2023-04-23T06:12:08;100096.41;;;12.25;54.55
77939;BME280;67136;47.546;21.630;2023-04-23T06:15:38;100085.34;;;12.31;54.42
77939;BME280;67136;47.546;21.630;2023-04-23T06:19:03;100094.69;;;12.43;53.96
77939;BME280;67136;47.546;21.630;2023-04-23T06:22:24;100092.41;;;12.31;53.80
77939;BME280;67136;47.546;21.630;2023-04-23T06:29:04;100094.66;;;12.90;52.07
77939;BME280;67136;47.546;21.630;2023-04-23T06:32:12;100088.06;;;13.13;51.55
77939;BME280;67136;47.546;21.630;2023-04-23T06:35:43;100092.06;;;13.34;51.04
77939;BME280;67136;47.546;21.630;2023-04-23T06:38:50;100090.94;;;13.37;50.20
77939;BME280;67136;47.546;21.630;2023-04-23T06:42:06;100098.00;;;13.54;50.07
77939;BME280;67136;47.546;21.630;2023-04-23T06:45:21;100087.03;;;13.76;49.73
77939;BME280;67136;47.546;21.630;2023-04-23T06:48:57;100096.34;;;13.53;50.18
77939;BME280;67136;47.546;21.630;2023-04-23T06:52:38;100096.66;;;13.50;50.92
77939;BME280;67136;47.546;21.630;2023-04-23T06:56:07;100095.69;;;13.68;50.64
77939;BME280;67136;47.546;21.630;2023-04-23T07:00:03;100101.41;;;14.07;49.26
77939;BME280;67136;47.546;21.630;2023-04-23T07:03:43;100105.22;;;14.56;47.93
77939;BME280;67136;47.546;21.630;2023-04-23T07:07:20;100104.25;;;14.98;47.24
77939;BME280;67136;47.546;21.630;2023-04-23T07:10:37;100099.62;;;14.92;47.19
77939;BME280;67136;47.546;21.630;2023-04-23T07:13:57;100097.44;;;15.30;46.58
77939;BME280;67136;47.546;21.630;2023-04-23T07:17:19;100093.44;;;15.18;46.73
77939;BME280;67136;47.546;21.630;2023-04-23T07:20:42;100104.63;;;15.85;45.14
77939;BME280;67136;47.546;21.630;2023-04-23T07:23:56;100102.81;;;15.78;45.41
77939;BME280;67136;47.546;21.630;2023-04-23T07:27:37;100105.09;;;15.57;46.01
77939;BME280;67136;47.546;21.630;2023-04-23T07:31:05;100105.13;;;15.89;45.00
77939;BME280;67136;47.546;21.630;2023-04-23T07:37:58;100113.00;;;16.29;43.91
77939;BME280;67136;47.546;21.630;2023-04-23T07:41:14;100105.88;;;16.70;43.25
77939;BME280;67136;47.546;21.630;2023-04-23T07:44:22;100103.84;;;17.10;42.21
77939;BME280;67136;47.546;21.630;2023-04-23T07:47:45;100102.38;;;18.29;40.32
77939;BME280;67136;47.546;21.630;2023-04-23T07:51:07;100105.25;;;18.86;37.97
77939;BME280;67136;47.546;21.630;2023-04-23T07:54:17;100105.63;;;19.47;36.32
77939;BME280;67136;47.546;21.630;2023-04-23T07:57:47;100104.25;;;19.94;35.87
77939;BME280;67136;47.546;21.630;2023-04-23T08:01:07;100100.47;;;21.52;32.89
77939;BME280;67136;47.546;21.630;2023-04-23T08:04:29;100101.78;;;22.35;30.72
77939;BME280;67136;47.546;21.630;2023-04-23T08:07:53;100107.56;;;23.59;29.64
77939;BME280;67136;47.546;21.630;2023-04-23T08:11:05;100108.37;;;23.15;29.52
77939;BME280;67136;47.546;21.630;2023-04-23T08:14:07;100107.09;;;24.24;28.62
77939;BME280;67136;47.546;21.630;2023-04-23T08:17:30;100110.34;;;22.82;29.43
77939;BME280;67136;47.546;21.630;2023-04-23T08:24:10;100110.84;;;22.14;30.38
77939;BME280;67136;47.546;21.630;2023-04-23T08:27:27;100113.22;;;21.76;31.06
77939;BME280;67136;47.546;21.630;2023-04-23T08:30:34;100108.19;;;20.87;31.56
77939;BME280;67136;47.546;21.630;2023-04-23T08:33:47;100094.81;;;22.47;30.16
77939;BME280;67136;47.546;21.630;2023-04-23T08:37:14;100103.78;;;24.72;27.29
77939;BME280;67136;47.546;21.630;2023-04-23T08:40:45;100102.97;;;24.71;26.68
77939;BME280;67136;47.546;21.630;2023-04-23T08:44:21;100096.38;;;23.75;27.44
77939;BME280;67136;47.546;21.630;2023-04-23T08:47:38;100095.59;;;22.80;28.51
77939;BME280;67136;47.546;21.630;2023-04-23T08:50:56;100096.69;;;21.21;32.05
77939;BME280;67136;47.546;21.630;2023-04-23T08:54:27;100095.31;;;21.31;31.85
77939;BME280;67136;47.546;21.630;2023-04-23T08:58:05;100088.88;;;21.79;30.11
77939;BME280;67136;47.546;21.630;2023-04-23T09:01:21;100086.47;;;23.76;27.69
77939;BME280;67136;47.546;21.630;2023-04-23T09:04:44;100089.50;;;24.17;27.55
77939;BME280;67136;47.546;21.630;2023-04-23T09:07:54;100082.88;;;26.74;24.33
77939;BME280;67136;47.546;21.630;2023-04-23T09:11:06;100080.72;;;27.56;22.63
77939;BME280;67136;47.546;21.630;2023-04-23T09:14:13;100074.94;;;27.64;22.30
77939;BME280;67136;47.546;21.630;2023-04-23T09:17:19;100082.78;;;29.08;20.52
77939;BME280;67136;47.546;21.630;2023-04-23T09:20:28;100077.09;;;29.04;19.94
77939;BME280;67136;47.546;21.630;2023-04-23T09:23:37;100071.34;;;29.17;19.56
77939;BME280;67136;47.546;21.630;2023-04-23T09:26:51;100069.97;;;28.17;20.72
77939;BME280;67136;47.546;21.630;2023-04-23T09:30:21;100066.88;;;31.11;18.52
77939;BME280;67136;47.546;21.630;2023-04-23T09:33:41;100070.84;;;29.47;19.65
77939;BME280;67136;47.546;21.630;2023-04-23T09:40:43;100072.69;;;29.42;18.90
77939;BME280;67136;47.546;21.630;2023-04-23T09:43:58;100076.06;;;31.10;17.96
77939;BME280;67136;47.546;21.630;2023-04-23T09:47:18;100066.28;;;30.11;16.89
77939;BME280;67136;47.546;21.630;2023-04-23T09:50:43;100064.06;;;30.03;16.67
77939;BME280;67136;47.546;21.630;2023-04-23T09:57:42;100060.47;;;31.37;13.49
77939;BME280;67136;47.546;21.630;2023-04-23T10:01:13;100052.00;;;29.74;15.77
77939;BME280;67136;47.546;21.630;2023-04-23T10:12:01;100035.03;;;33.95;12.58
77939;BME280;67136;47.546;21.630;2023-04-23T10:15:29;100034.31;;;35.26;11.32
77939;BME280;67136;47.546;21.630;2023-04-23T10:18:50;100029.88;;;34.22;12.43
77939;BME280;67136;47.546;21.630;2023-04-23T10:22:14;100020.00;;;34.55;13.01
77939;BME280;67136;47.546;21.630;2023-04-23T10:25:39;100028.09;;;32.87;14.36
77939;BME280;67136;47.546;21.630;2023-04-23T10:28:53;100018.53;;;31.15;15.62
77939;BME280;67136;47.546;21.630;2023-04-23T10:32:05;100018.00;;;33.84;13.70
77939;BME280;67136;47.546;21.630;2023-04-23T10:35:32;100021.41;;;33.28;13.15
77939;BME280;67136;47.546;21.630;2023-04-23T10:38:59;100003.22;;;34.01;13.07
77939;BME280;67136;47.546;21.630;2023-04-23T10:42:17;100010.69;;;33.08;13.22
77939;BME280;67136;47.546;21.630;2023-04-23T10:45:50;100002.66;;;35.99;11.81
77939;BME280;67136;47.546;21.630;2023-04-23T10:49:24;100005.91;;;36.29;11.41
77939;BME280;67136;47.546;21.630;2023-04-23T10:52:31;99985.56;;;35.48;10.91
77939;BME280;67136;47.546;21.630;2023-04-23T10:55:48;99988.66;;;35.60;11.70
77939;BME280;67136;47.546;21.630;2023-04-23T10:59:02;99986.97;;;36.37;11.43
77939;BME280;67136;47.546;21.630;2023-04-23T11:02:19;99985.03;;;37.50;10.41
77939;BME280;67136;47.546;21.630;2023-04-23T11:05:25;99982.12;;;34.63;11.62
77939;BME280;67136;47.546;21.630;2023-04-23T11:08:57;99983.31;;;36.14;10.68
77939;BME280;67136;47.546;21.630;2023-04-23T11:16:14;99969.28;;;33.36;12.27
77939;BME280;67136;47.546;21.630;2023-04-23T11:19:30;99976.06;;;32.26;13.14
77939;BME280;67136;47.546;21.630;2023-04-23T11:22:55;99980.09;;;32.33;13.05
77939;BME280;67136;47.546;21.630;2023-04-23T11:26:20;99971.28;;;34.82;12.47
77939;BME280;67136;47.546;21.630;2023-04-23T11:29:37;99970.75;;;34.61;12.96
77939;BME280;67136;47.546;21.630;2023-04-23T11:32:49;99963.41;;;31.21;13.54
77939;BME280;67136;47.546;21.630;2023-04-23T11:35:55;99955.59;;;31.65;13.18
77939;BME280;67136;47.546;21.630;2023-04-23T11:39:14;99955.91;;;30.46;13.92
77939;BME280;67136;47.546;21.630;2023-04-23T11:42:24;99951.22;;;31.13;13.19
77939;BME280;67136;47.546;21.630;2023-04-23T11:45:59;99958.34;;;33.12;12.30
77939;BME280;67136;47.546;21.630;2023-04-23T11:49:26;99963.50;;;32.55;12.52
77939;BME280;67136;47.546;21.630;2023-04-23T11:53:14;99945.00;;;33.54;11.80
77939;BME280;67136;47.546;21.630;2023-04-23T11:56:33;99941.81;;;27.73;15.97
77939;BME280;67136;47.546;21.630;2023-04-23T11:59:52;99939.34;;;31.90;12.98
77939;BME280;67136;47.546;21.630;2023-04-23T12:03:19;99939.06;;;31.91;12.92
77939;BME280;67136;47.546;21.630;2023-04-23T12:06:31;99924.25;;;33.06;12.63
77939;BME280;67136;47.546;21.630;2023-04-23T12:09:40;99924.13;;;33.21;13.27
77939;BME280;67136;47.546;21.630;2023-04-23T12:12:52;99922.28;;;34.03;12.84
77939;BME280;67136;47.546;21.630;2023-04-23T12:16:14;99910.88;;;35.22;11.54
77939;BME280;67136;47.546;21.630;2023-04-23T12:19:34;99918.09;;;33.29;13.10
77939;BME280;67136;47.546;21.630;2023-04-23T12:23:03;99917.16;;;30.97;14.77
77939;BME280;67136;47.546;21.630;2023-04-23T12:26:25;99910.06;;;30.61;15.06
77939;BME280;67136;47.546;21.630;2023-04-23T12:29:39;99912.28;;;32.63;13.34
77939;BME280;67136;47.546;21.630;2023-04-23T12:33:02;99914.44;;;30.15;14.47
77939;BME280;67136;47.546;21.630;2023-04-23T12:36:19;99901.56;;;32.87;12.51
77939;BME280;67136;47.546;21.630;2023-04-23T12:39:42;99898.66;;;34.87;11.94
77939;BME280;67136;47.546;21.630;2023-04-23T12:42:56;99890.50;;;34.69;11.48
77939;BME280;67136;47.546;21.630;2023-04-23T12:46:06;99883.66;;;31.18;13.00
77939;BME280;67136;47.546;21.630;2023-04-23T12:49:15;99890.16;;;31.12;13.20
77939;BME280;67136;47.546;21.630;2023-04-23T12:52:20;99875.69;;;32.71;12.04
77939;BME280;67136;47.546;21.630;2023-04-23T12:55:45;99873.88;;;31.78;12.86
77939;BME280;67136;47.546;21.630;2023-04-23T12:58:56;99868.00;;;30.85;13.44
77939;BME280;67136;47.546;21.630;2023-04-23T13:02:13;99871.09;;;32.08;12.42
77939;BME280;67136;47.546;21.630;2023-04-23T13:05:31;99867.34;;;32.04;12.45
77939;BME280;67136;47.546;21.630;2023-04-23T13:08:47;99862.97;;;26.56;16.56
77939;BME280;67136;47.546;21.630;2023-04-23T13:12:12;99865.66;;;25.54;17.87
77939;BME280;67136;47.546;21.630;2023-04-23T13:15:21;99862.53;;;26.59;16.78
77939;BME280;67136;47.546;21.630;2023-04-23T13:18:31;99849.03;;;30.75;13.97
77939;BME280;67136;47.546;21.630;2023-04-23T13:21:36;99853.88;;;32.52;12.58
77939;BME280;67136;47.546;21.630;2023-04-23T13:24:47;99854.81;;;32.18;12.70
77939;BME280;67136;47.546;21.630;2023-04-23T13:28:00;99851.16;;;30.53;13.88
77939;BME280;67136;47.546;21.630;2023-04-23T13:31:19;99848.28;;;31.30;13.02
77939;BME280;67136;47.546;21.630;2023-04-23T13:34:32;99840.72;;;32.26;12.66
77939;BME280;67136;47.546;21.630;2023-04-23T13:37:58;99846.63;;;29.87;13.87
77939;BME280;67136;47.546;21.630;2023-04-23T13:41:20;99832.41;;;29.60;13.97
77939;BME280;67136;47.546;21.630;2023-04-23T13:44:46;99825.75;;;30.24;13.83
77939;BME280;67136;47.546;21.630;2023-04-23T13:48:07;99827.41;;;29.32;14.43
77939;BME280;67136;47.546;21.630;2023-04-23T13:51:12;99821.53;;;31.28;13.56
77939;BME280;67136;47.546;21.630;2023-04-23T13:54:40;99819.34;;;31.25;13.41
77939;BME280;67136;47.546;21.630;2023-04-23T13:57:47;99805.03;;;32.19;13.24
77939;BME280;67136;47.546;21.630;2023-04-23T14:00:53;99798.03;;;32.08;13.37
77939;BME280;67136;47.546;21.630;2023-04-23T14:03:58;99799.78;;;28.03;15.96
77939;BME280;67136;47.546;21.630;2023-04-23T14:07:17;99804.72;;;26.24;17.58
77939;BME280;67136;47.546;21.630;2023-04-23T14:10:23;99800.94;;;27.31;16.85
77939;BME280;67136;47.546;21.630;2023-04-23T14:13:51;99798.66;;;27.39;16.85
77939;BME280;67136;47.546;21.630;2023-04-23T14:17:08;99800.12;;;27.14;17.04
77939;BME280;67136;47.546;21.630;2023-04-23T14:20:30;99800.19;;;28.43;15.50
77939;BME280;67136;47.546;21.630;2023-04-23T14:24:03;99788.41;;;27.96;16.26
77939;BME280;67136;47.546;21.630;2023-04-23T14:27:39;99789.63;;;28.58;15.78
77939;BME280;67136;47.546;21.630;2023-04-23T14:30:59;99790.38;;;26.91;16.79
77939;BME280;67136;47.546;21.630;2023-04-23T14:34:10;99786.63;;;27.85;16.11
77939;BME280;67136;47.546;21.630;2023-04-23T14:37:25;99795.22;;;27.44;16.34
77939;BME280;67136;47.546;21.630;2023-04-23T14:40:39;99784.53;;;26.77;16.63
77939;BME280;67136;47.546;21.630;2023-04-23T14:44:01;99785.19;;;25.72;17.78
77939;BME280;67136;47.546;21.630;2023-04-23T14:47:14;99785.41;;;26.38;16.71
77939;BME280;67136;47.546;21.630;2023-04-23T14:50:24;99781.13;;;25.46;17.75
77939;BME280;67136;47.546;21.630;2023-04-23T14:53:34;99780.44;;;24.93;18.49
77939;BME280;67136;47.546;21.630;2023-04-23T14:56:44;99776.41;;;25.37;18.12
77939;BME280;67136;47.546;21.630;2023-04-23T14:59:58;99781.25;;;26.75;16.64
77939;BME280;67136;47.546;21.630;2023-04-23T15:03:19;99777.78;;;26.47;16.71
77939;BME280;67136;47.546;21.630;2023-04-23T15:06:38;99778.47;;;27.04;16.56
77939;BME280;67136;47.546;21.630;2023-04-23T15:16:39;99766.47;;;24.80;18.40
77939;BME280;67136;47.546;21.630;2023-04-23T15:19:59;99762.50;;;23.64;19.45
77939;BME280;67136;47.546;21.630;2023-04-23T15:23:15;99769.91;;;24.27;18.98
77939;BME280;67136;47.546;21.630;2023-04-23T15:26:35;99761.47;;;24.42;19.74
77939;BME280;67136;47.546;21.630;2023-04-23T15:29:58;99770.81;;;23.13;19.96
77939;BME280;67136;47.546;21.630;2023-04-23T15:33:13;99760.31;;;22.93;20.46
77939;BME280;67136;47.546;21.630;2023-04-23T15:36:34;99761.91;;;23.19;20.23
77939;BME280;67136;47.546;21.630;2023-04-23T15:39:47;99757.97;;;23.28;20.60
77939;BME280;67136;47.546;21.630;2023-04-23T15:43:00;99756.72;;;22.57;21.38
77939;BME280;67136;47.546;21.630;2023-04-23T15:46:09;99750.31;;;22.64;21.49
77939;BME280;67136;47.546;21.630;2023-04-23T15:49:21;99757.75;;;22.56;21.46
77939;BME280;67136;47.546;21.630;2023-04-23T15:52:37;99754.81;;;22.64;21.29
77939;BME280;67136;47.546;21.630;2023-04-23T15:55:44;99749.81;;;22.11;22.86
77939;BME280;67136;47.546;21.630;2023-04-23T15:58:57;99746.62;;;21.96;23.35
77939;BME280;67136;47.546;21.630;2023-04-23T16:02:09;99745.88;;;21.83;23.00
77939;BME280;67136;47.546;21.630;2023-04-23T16:05:21;99737.00;;;21.45;23.91
77939;BME280;67136;47.546;21.630;2023-04-23T16:08:36;99742.37;;;21.76;23.39
77939;BME280;67136;47.546;21.630;2023-04-23T16:12:02;99729.78;;;21.58;23.99
77939;BME280;67136;47.546;21.630;2023-04-23T16:15:26;99729.69;;;21.14;24.55
77939;BME280;67136;47.546;21.630;2023-04-23T16:18:40;99737.06;;;20.92;25.05
77939;BME280;67136;47.546;21.630;2023-04-23T16:21:54;99733.81;;;20.71;24.95
77939;BME280;67136;47.546;21.630;2023-04-23T16:25:18;99726.84;;;20.57;25.01
77939;BME280;67136;47.546;21.630;2023-04-23T16:28:48;99733.00;;;20.38;26.10
77939;BME280;67136;47.546;21.630;2023-04-23T16:32:29;99732.56;;;20.28;26.56
77939;BME280;67136;47.546;21.630;2023-04-23T16:35:56;99730.88;;;20.14;26.32
77939;BME280;67136;47.546;21.630;2023-04-23T16:39:15;99727.78;;;19.97;26.56
77939;BME280;67136;47.546;21.630;2023-04-23T16:42:27;99730.84;;;20.01;26.91
77939;BME280;67136;47.546;21.630;2023-04-23T16:46:09;99724.66;;;19.81;26.97
77939;BME280;67136;47.546;21.630;2023-04-23T16:49:21;99730.75;;;19.74;27.37
77939;BME280;67136;47.546;21.630;2023-04-23T16:52:47;99728.69;;;19.63;27.81
77939;BME280;67136;47.546;21.630;2023-04-23T16:56:11;99720.69;;;19.50;28.05
77939;BME280;67136;47.546;21.630;2023-04-23T16:59:31;99726.13;;;19.42;28.56
77939;BME280;67136;47.546;21.630;2023-04-23T17:02:38;99712.59;;;19.31;28.69
77939;BME280;67136;47.546;21.630;2023-04-23T17:05:54;99711.28;;;19.20;29.13
77939;BME280;67136;47.546;21.630;2023-04-23T17:09:17;99715.12;;;19.11;29.40
77939;BME280;67136;47.546;21.630;2023-04-23T17:12:55;99714.22;;;18.98;29.34
77939;BME280;67136;47.546;21.630;2023-04-23T17:16:03;99707.47;;;18.95;29.12
77939;BME280;67136;47.546;21.630;2023-04-23T17:19:06;99710.72;;;18.91;29.13
77939;BME280;67136;47.546;21.630;2023-04-23T17:22:22;99707.59;;;18.81;29.25
77939;BME280;67136;47.546;21.630;2023-04-23T17:25:32;99709.75;;;18.71;29.72
77939;BME280;67136;47.546;21.630;2023-04-23T17:28:41;99713.13;;;18.58;29.62
77939;BME280;67136;47.546;21.630;2023-04-23T17:31:57;99718.50;;;18.43;30.27
77939;BME280;67136;47.546;21.630;2023-04-23T17:35:07;99719.53;;;18.28;30.31
77939;BME280;67136;47.546;21.630;2023-04-23T17:38:35;99718.28;;;18.03;30.74
77939;BME280;67136;47.546;21.630;2023-04-23T17:41:49;99722.31;;;17.99;31.19
77939;BME280;67136;47.546;21.630;2023-04-23T17:44:53;99721.63;;;17.90;31.57
77939;BME280;67136;47.546;21.630;2023-04-23T17:48:11;99725.09;;;17.76;32.13
77939;BME280;67136;47.546;21.630;2023-04-23T17:51:41;99720.75;;;17.69;32.07
77939;BME280;67136;47.546;21.630;2023-04-23T17:55:06;99727.78;;;17.62;32.51
77939;BME280;67136;47.546;21.630;2023-04-23T17:58:16;99715.94;;;17.28;33.13
77939;BME280;67136;47.546;21.630;2023-04-23T18:01:32;99722.16;;;17.06;34.00
77939;BME280;67136;47.546;21.630;2023-04-23T18:04:55;99721.59;;;16.96;34.31
77939;BME280;67136;47.546;21.630;2023-04-23T18:08:29;99729.94;;;16.85;34.83
77939;BME280;67136;47.546;21.630;2023-04-23T18:11:37;99729.16;;;16.85;35.80
77939;BME280;67136;47.546;21.630;2023-04-23T18:14:51;99729.38;;;16.75;35.69